Terminal Aerodrome Forecast
Issued by NWS

Home | Current Version | Previous Version | Text Only | Print | Product List | Glossary Off
Versions: 1 2 3 4 5 6 7 8 9 10 11 12 13 14 15 16 17 18 19 20 21 22

000
FTUS43 KSGF 271700
TAFJLN
TAF
KJLN 271720Z 2718/2818 VRB04KT P6SM FEW045
     FM280000 16006KT P6SM SKC
     FM280700 18010KT P6SM SKC WS020/22045KT
     FM281500 19017G28KT P6SM SKC=

USA.gov is the U.S. government's official web portal to all federal, state and local government web resources and services.